CYND

Ottawa / Gatineau Airport

Ottawa, , Canada
METAR CYND 200200Z 08006KT 2SM -RA BR OVC004 01/01 A3012 RMK FG4SF4 SLP204
Observed Flight Rules
Feb-20 @ 02:00 UTC (6 hours ago) Instrument Flight Rules
Wind Visibility Clouds Conditions
80° at 6 knots 2 miles
  • Overcast at 400' AGL
  • Light Rain
  • Mist
Temperatures Readings
Current 1°C / 34°F
Dewpoint 1°C / 34°F
Humidity 100%
Altimeter 30.12" Hg
Pressure 1020.4 hPa
Elevation 64
METAR CYND 200200Z 08006KT 2SM -RA BR OVC004 01/01 A3012 RMK FG4SF4 SLP204
Observed Flight Rules
Feb-20 @ 02:00 UTC
(6 hours ago)
LIFR
Wind Visibility
80° at 6 knots 2 miles
Clouds
  • Overcast at 400' AGL
Conditions
  • Light Rain
  • Mist
Temperature Dewpoint
1°C / 34°F 1°C / 34°F
Humidity Altimeter Pressure
100% 30.12" Hg 1020.4 hPa